Time;durP1;ratioP1;P1;durP2;ratioP2;P2;SDS_P1;SDS_P2;PMS_P1;PMS_P2;Temp;Humidity;BMP_temperature;BMP_pressure;BME280_temperature;BME280_humidity;BME280_pressure;Samples;Min_cycle;Max_cycle;Signal;HPM_P1;HPM_P2
2022/04/10 00:01:28;;;;;;;16.95;3.33;;;6.00;99.90;;;;;;5021371;28;20485;-67
2022/04/10 00:03:54;;;;;;;16.77;3.25;;;6.00;99.90;;;;;;5010185;28;20080;-67
2022/04/10 00:06:20;;;;;;;11.55;2.20;;;5.90;99.90;;;;;;5011845;28;20072;-66
2022/04/10 00:08:45;;;;;;;20.42;3.63;;;6.00;99.90;;;;;;5027902;28;20392;-66
2022/04/10 00:11:11;;;;;;;14.82;3.58;;;6.00;99.90;;;;;;5031095;28;20124;-66
2022/04/10 00:13:38;;;;;;;11.52;2.83;;;6.00;99.90;;;;;;5030358;28;20064;-67
2022/04/10 00:16:04;;;;;;;18.05;3.58;;;5.90;99.90;;;;;;5013651;28;20042;-67
2022/04/10 00:18:31;;;;;;;12.75;2.83;;;5.90;99.90;;;;;;5026934;28;20041;-67
2022/04/10 00:20:56;;;;;;;19.58;3.58;;;5.80;99.90;;;;;;5011596;28;20050;-67
2022/04/10 00:23:22;;;;;;;18.10;3.67;;;5.80;99.90;;;;;;5011151;28;20045;-66
2022/04/10 00:25:47;;;;;;;17.98;2.97;;;5.80;99.90;;;;;;5011058;28;20046;-66
2022/04/10 00:28:13;;;;;;;16.15;3.38;;;5.80;99.90;;;;;;5011498;28;20073;-67
2022/04/10 00:30:38;;;;;;;12.48;2.70;;;5.80;99.90;;;;;;5010021;28;20052;-67
2022/04/10 00:33:04;;;;;;;19.10;2.60;;;5.80;99.90;;;;;;5010649;28;20050;-67
2022/04/10 00:35:30;;;;;;;12.00;2.35;;;5.80;99.90;;;;;;5026432;28;20132;-66
2022/04/10 00:37:55;;;;;;;14.80;3.78;;;5.70;99.90;;;;;;5030883;28;20045;-66
2022/04/10 00:40:21;;;;;;;12.50;3.42;;;5.70;99.90;;;;;;5022260;28;20547;-66
2022/04/10 00:42:48;;;;;;;15.15;3.75;;;5.70;99.90;;;;;;5013435;28;20038;-66
2022/04/10 00:45:14;;;;;;;24.95;4.53;;;5.70;99.90;;;;;;5012938;28;20049;-66
2022/04/10 00:47:40;;;;;;;10.90;3.00;;;5.60;99.90;;;;;;5016530;28;20050;-66
2022/04/10 00:50:08;;;;;;;17.95;2.97;;;5.60;99.90;;;;;;5027903;28;20044;-67
2022/04/10 00:52:36;;;;;;;12.77;2.78;;;5.60;99.90;;;;;;5009893;28;20494;-67
2022/04/10 00:55:01;;;;;;;14.48;3.63;;;5.60;99.90;;;;;;5009629;28;20100;-67
2022/04/10 00:57:27;;;;;;;12.50;3.35;;;5.50;99.90;;;;;;5008227;28;20510;-66
2022/04/10 00:59:53;;;;;;;22.88;4.05;;;5.60;99.90;;;;;;5010844;28;20041;-67
2022/04/10 01:02:19;;;;;;;17.58;3.25;;;5.60;99.90;;;;;;5008510;28;20044;-67
2022/04/10 01:04:46;;;;;;;20.23;3.72;;;5.50;99.90;;;;;;5012167;28;20053;-67
2022/04/10 01:07:13;;;;;;;16.15;3.10;;;5.50;99.90;;;;;;5009203;28;20045;-67
2022/04/10 01:09:40;;;;;;;14.55;2.20;;;5.40;99.90;;;;;;5017474;28;20041;-66
2022/04/10 01:12:09;;;;;;;16.83;3.67;;;5.50;99.90;;;;;;5009433;28;20145;-66
2022/04/10 01:14:39;;;;;;;14.13;2.70;;;5.50;99.90;;;;;;5010021;28;20532;-67
2022/04/10 01:17:08;;;;;;;18.60;4.20;;;5.50;99.90;;;;;;5012095;28;20046;-66
2022/04/10 01:19:35;;;;;;;16.10;2.90;;;5.50;99.90;;;;;;5009593;28;20156;-67
2022/04/10 01:22:05;;;;;;;20.85;2.45;;;5.50;99.90;;;;;;5016094;28;20045;-66
2022/04/10 01:24:34;;;;;;;12.25;2.47;;;5.40;99.90;;;;;;5028770;28;20041;-67
2022/04/10 01:27:02;;;;;;;14.15;2.72;;;5.50;99.90;;;;;;5011507;28;21288;-67
2022/04/10 01:29:28;;;;;;;12.70;2.30;;;5.40;99.90;;;;;;5020021;28;20049;-67
2022/04/10 01:31:55;;;;;;;16.48;3.42;;;5.40;99.90;;;;;;5028196;28;20033;-66
2022/04/10 01:34:20;;;;;;;13.55;3.22;;;5.40;99.90;;;;;;5013276;28;20509;-67
2022/04/10 01:36:46;;;;;;;23.77;3.05;;;5.40;99.90;;;;;;5024267;28;20034;-66
2022/04/10 01:39:15;;;;;;;15.93;3.10;;;5.40;99.90;;;;;;5029689;28;20512;-66
2022/04/10 01:41:41;;;;;;;16.45;2.85;;;5.30;99.90;;;;;;5010541;28;20045;-66
2022/04/10 01:44:08;;;;;;;17.88;3.33;;;5.40;99.90;;;;;;5008996;28;20052;-66
2022/04/10 01:46:35;;;;;;;14.13;2.80;;;5.40;99.90;;;;;;5020231;28;20064;-67
2022/04/10 01:49:01;;;;;;;12.68;2.35;;;5.50;99.90;;;;;;5024840;28;20042;-66
2022/04/10 01:51:27;;;;;;;15.38;2.65;;;5.40;99.90;;;;;;5028158;28;20045;-66
2022/04/10 01:53:54;;;;;;;19.67;2.72;;;5.40;99.90;;;;;;5029853;28;20136;-66
2022/04/10 01:56:20;;;;;;;12.30;1.88;;;5.30;99.90;;;;;;5025893;28;20191;-66
2022/04/10 01:58:47;;;;;;;17.08;4.65;;;5.40;99.90;;;;;;5028253;28;20049;-67
2022/04/10 02:01:15;;;;;;;20.08;3.03;;;5.40;99.90;;;;;;5029956;28;20053;-66
2022/04/10 02:03:41;;;;;;;14.18;2.67;;;5.40;99.90;;;;;;5029357;28;20053;-66
2022/04/10 02:06:09;;;;;;;18.63;3.00;;;5.50;99.90;;;;;;5026868;28;20037;-67
2022/04/10 02:08:38;;;;;;;18.55;2.65;;;5.50;99.90;;;;;;5016663;28;20104;-66
2022/04/10 02:11:15;;;;;;;8.73;2.03;;;5.40;99.90;;;;;;5029310;28;20052;-66
2022/04/10 02:13:41;;;;;;;14.13;2.63;;;5.40;99.90;;;;;;5029717;28;20042;-66
2022/04/10 02:16:10;;;;;;;8.43;2.17;;;5.40;99.90;;;;;;5009661;28;20133;-66
2022/04/10 02:18:36;;;;;;;12.13;2.50;;;5.40;99.90;;;;;;5008630;28;20050;-66
2022/04/10 02:21:02;;;;;;;8.98;2.92;;;5.40;99.90;;;;;;5011770;28;20045;-67
2022/04/10 02:23:28;;;;;;;15.40;2.90;;;5.40;99.90;;;;;;5027811;28;20537;-66
2022/04/10 02:25:54;;;;;;;16.52;2.72;;;5.50;99.90;;;;;;5029037;28;20045;-66
2022/04/10 02:28:20;;;;;;;18.67;2.40;;;5.50;99.90;;;;;;5029004;28;20085;-66
2022/04/10 02:30:45;;;;;;;17.98;2.97;;;5.60;99.90;;;;;;5023207;28;20080;-66
2022/04/10 02:33:11;;;;;;;7.03;1.67;;;5.60;99.90;;;;;;5031817;28;20099;-66
2022/04/10 02:35:36;;;;;;;8.85;2.55;;;5.50;99.90;;;;;;5022524;28;20045;-66
2022/04/10 02:38:02;;;;;;;8.15;1.48;;;5.00;99.90;;;;;;5022892;28;20044;-68
2022/04/10 02:40:28;;;;;;;6.35;1.55;;;4.60;99.90;;;;;;5031365;28;20055;-67
2022/04/10 02:42:53;;;;;;;6.05;1.17;;;4.50;99.90;;;;;;5029433;28;22322;-67
2022/04/10 02:45:19;;;;;;;5.82;0.70;;;4.50;99.90;;;;;;5021931;28;20049;-67
2022/04/10 02:47:44;;;;;;;8.02;1.05;;;4.60;99.90;;;;;;5011515;28;20058;-67
2022/04/10 02:50:10;;;;;;;1.55;0.82;;;4.50;99.90;;;;;;5013534;28;20041;-67
2022/04/10 02:52:35;;;;;;;2.15;0.40;;;4.50;99.90;;;;;;5011503;28;20073;-67
2022/04/10 02:55:01;;;;;;;8.20;0.70;;;4.40;99.90;;;;;;5012695;28;20379;-67
2022/04/10 02:57:26;;;;;;;3.15;0.60;;;4.40;99.90;;;;;;5024702;28;20045;-68
2022/04/10 02:59:52;;;;;;;3.03;0.70;;;4.40;99.90;;;;;;5022046;28;20052;-68
2022/04/10 03:02:18;;;;;;;2.63;0.90;;;4.50;99.90;;;;;;5019555;28;20035;-68
2022/04/10 03:04:43;;;;;;;5.57;0.90;;;4.50;99.90;;;;;;5032025;28;20049;-68
2022/04/10 03:07:09;;;;;;;5.25;0.98;;;4.50;99.90;;;;;;5031787;28;20038;-68
2022/04/10 03:09:34;;;;;;;5.07;0.90;;;4.50;99.90;;;;;;5015739;28;20108;-68
2022/04/10 03:12:03;;;;;;;3.22;0.70;;;4.50;99.90;;;;;;5014513;28;20050;-68
2022/04/10 03:14:28;;;;;;;7.15;1.25;;;4.50;99.90;;;;;;5029910;28;20037;-68
2022/04/10 03:16:56;;;;;;;6.35;1.55;;;4.50;99.90;;;;;;5031642;28;20556;-68
2022/04/10 03:19:21;;;;;;;8.50;1.90;;;4.40;99.90;;;;;;5031335;28;20491;-68
2022/04/10 03:21:47;;;;;;;4.68;1.17;;;4.50;99.90;;;;;;5027391;28;20183;-68
2022/04/10 03:24:12;;;;;;;3.90;1.33;;;4.50;99.90;;;;;;5012518;28;20071;-68
2022/04/10 03:26:38;;;;;;;6.50;1.52;;;4.40;99.90;;;;;;5011956;28;20139;-68
2022/04/10 03:29:04;;;;;;;8.25;1.83;;;4.50;99.90;;;;;;5014493;28;20041;-68
2022/04/10 03:31:30;;;;;;;12.02;1.80;;;4.50;99.90;;;;;;5031384;28;20099;-68
2022/04/10 03:33:55;;;;;;;8.95;1.67;;;4.50;99.90;;;;;;5031238;28;20042;-68
2022/04/10 03:36:21;;;;;;;8.63;1.88;;;4.50;99.90;;;;;;5027365;28;20048;-68
2022/04/10 03:38:46;;;;;;;12.98;1.48;;;4.40;99.90;;;;;;5030201;28;20049;-68
2022/04/10 03:41:12;;;;;;;8.20;1.73;;;4.50;99.90;;;;;;5032266;28;20393;-68
2022/04/10 03:43:37;;;;;;;10.63;2.35;;;4.50;99.90;;;;;;5028679;28;20415;-68
2022/04/10 03:46:03;;;;;;;6.45;1.48;;;4.50;99.90;;;;;;5024035;28;20378;-68
2022/04/10 03:48:29;;;;;;;10.07;1.98;;;4.40;99.90;;;;;;5010751;28;20157;-68
2022/04/10 03:50:54;;;;;;;5.75;1.48;;;4.50;99.90;;;;;;5022139;28;20064;-68
2022/04/10 03:53:20;;;;;;;10.07;1.88;;;4.50;99.90;;;;;;5030809;28;20065;-68
2022/04/10 03:55:45;;;;;;;9.13;1.92;;;4.50;99.90;;;;;;5021421;28;20069;-68
2022/04/10 03:58:11;;;;;;;7.97;2.58;;;4.50;99.90;;;;;;5021119;28;20120;-68
2022/04/10 04:00:36;;;;;;;9.27;1.88;;;4.50;99.90;;;;;;5024973;28;20045;-68
2022/04/10 04:03:02;;;;;;;8.52;1.25;;;4.40;99.90;;;;;;5010437;28;20061;-68
2022/04/10 04:05:28;;;;;;;8.60;2.13;;;4.50;99.90;;;;;;5019024;28;20418;-68
2022/04/10 04:07:54;;;;;;;10.52;2.17;;;4.40;99.90;;;;;;5029102;28;20103;-68
2022/04/10 04:10:20;;;;;;;4.70;1.40;;;4.40;99.90;;;;;;5011054;28;20053;-68
2022/04/10 04:12:46;;;;;;;9.85;1.70;;;4.40;99.90;;;;;;5010371;28;20042;-68
2022/04/10 04:15:12;;;;;;;7.15;2.03;;;4.40;99.90;;;;;;5011640;28;20055;-68
2022/04/10 04:17:38;;;;;;;9.45;2.08;;;4.40;99.90;;;;;;5011291;28;20049;-68
2022/04/10 04:20:08;;;;;;;10.48;2.30;;;4.40;99.90;;;;;;5010887;28;20122;-68
2022/04/10 04:22:37;;;;;;;9.95;2.75;;;4.50;99.90;;;;;;5009817;28;20051;-68
2022/04/10 04:25:03;;;;;;;7.18;1.67;;;4.40;99.90;;;;;;5028442;28;20041;-68
2022/04/10 04:27:29;;;;;;;10.30;2.25;;;4.50;99.90;;;;;;5030049;28;20049;-68
2022/04/10 04:29:55;;;;;;;10.50;2.40;;;4.50;99.90;;;;;;5024134;28;20041;-68
2022/04/10 04:32:20;;;;;;;8.30;2.13;;;4.50;99.90;;;;;;5025796;28;20700;-68
2022/04/10 04:34:49;;;;;;;9.05;2.13;;;4.50;99.90;;;;;;5029994;28;20130;-68
2022/04/10 04:37:15;;;;;;;14.20;2.47;;;4.60;99.90;;;;;;5015703;28;20057;-68
2022/04/10 04:39:40;;;;;;;10.88;2.05;;;4.60;99.90;;;;;;5025834;28;20191;-68
2022/04/10 04:42:06;;;;;;;4.53;1.92;;;4.70;99.90;;;;;;5018187;28;20045;-68
2022/04/10 04:44:32;;;;;;;12.73;2.42;;;4.70;99.90;;;;;;5014390;28;20046;-68
2022/04/10 04:46:58;;;;;;;8.18;1.67;;;4.60;99.90;;;;;;5030423;28;20125;-68
2022/04/10 04:49:24;;;;;;;9.88;2.53;;;4.70;99.90;;;;;;5026212;28;20041;-68
2022/04/10 04:51:50;;;;;;;12.10;1.85;;;4.70;99.90;;;;;;5010197;28;20405;-68
2022/04/10 04:54:15;;;;;;;9.50;1.77;;;4.70;99.90;;;;;;5009712;28;20141;-68
2022/04/10 04:56:41;;;;;;;7.22;1.40;;;4.70;99.90;;;;;;5013536;28;20145;-68
2022/04/10 04:59:06;;;;;;;7.35;1.10;;;4.70;99.90;;;;;;5026836;28;20116;-68
2022/04/10 05:01:32;;;;;;;5.05;1.45;;;4.70;99.90;;;;;;5020684;28;20405;-68
2022/04/10 05:03:57;;;;;;;10.20;1.40;;;4.70;99.90;;;;;;5018616;28;20497;-68
2022/04/10 05:06:25;;;;;;;3.85;1.20;;;4.70;99.90;;;;;;5018003;28;20080;-68
2022/04/10 05:08:50;;;;;;;5.70;1.30;;;4.70;99.90;;;;;;5013307;28;20042;-68
2022/04/10 05:11:16;;;;;;;7.80;2.15;;;4.70;99.90;;;;;;5024343;28;20044;-68
2022/04/10 05:13:42;;;;;;;9.50;1.58;;;4.80;99.90;;;;;;5030163;28;20121;-68
2022/04/10 05:16:08;;;;;;;6.78;1.73;;;4.80;99.90;;;;;;5027889;28;20396;-68
2022/04/10 05:18:34;;;;;;;11.40;1.50;;;4.80;99.90;;;;;;5030089;28;20124;-68
2022/04/10 05:20:59;;;;;;;5.78;1.33;;;4.80;99.90;;;;;;5023882;28;20509;-68
2022/04/10 05:23:25;;;;;;;5.80;1.60;;;4.80;99.90;;;;;;5009409;28;20041;-68
2022/04/10 05:25:51;;;;;;;8.20;1.45;;;4.80;99.90;;;;;;5009685;28;20046;-68
2022/04/10 05:28:17;;;;;;;6.03;1.52;;;4.80;99.90;;;;;;5020463;28;20052;-68
2022/04/10 05:30:43;;;;;;;6.97;1.38;;;4.70;99.90;;;;;;5029870;28;20060;-68
2022/04/10 05:33:09;;;;;;;6.40;1.23;;;4.70;99.90;;;;;;5030311;28;20034;-68
2022/04/10 05:35:36;;;;;;;5.68;1.20;;;4.70;99.90;;;;;;5019697;28;20120;-68
2022/04/10 05:38:02;;;;;;;8.32;1.73;;;4.60;99.90;;;;;;5015194;28;20048;-68
2022/04/10 05:40:28;;;;;;;5.55;1.05;;;4.60;99.90;;;;;;5009743;28;20108;-68
2022/04/10 05:42:54;;;;;;;8.18;2.20;;;4.60;99.90;;;;;;5009822;28;20096;-68
2022/04/10 05:45:19;;;;;;;11.32;1.60;;;4.60;99.90;;;;;;5011742;28;20046;-68
2022/04/10 05:47:45;;;;;;;13.57;1.67;;;4.70;99.90;;;;;;5010547;28;20095;-68
2022/04/10 05:50:11;;;;;;;5.18;1.48;;;4.80;99.90;;;;;;5009652;28;20421;-68
2022/04/10 05:52:43;;;;;;;12.18;2.30;;;4.80;99.90;;;;;;5023634;28;20195;-68
2022/04/10 05:55:10;;;;;;;9.20;1.50;;;4.90;99.90;;;;;;5027658;28;20057;-68
2022/04/10 05:57:36;;;;;;;6.97;1.42;;;4.90;99.90;;;;;;5025788;28;20052;-68
2022/04/10 06:00:05;;;;;;;13.88;2.55;;;4.90;99.90;;;;;;5030074;28;20046;-68
2022/04/10 06:02:31;;;;;;;6.68;1.63;;;5.00;99.90;;;;;;5008991;28;20056;-68
2022/04/10 06:04:57;;;;;;;9.90;1.83;;;5.00;99.90;;;;;;5014447;28;20033;-68
2022/04/10 06:07:23;;;;;;;7.38;1.98;;;5.10;99.90;;;;;;5022019;28;20069;-68
2022/04/10 06:09:48;;;;;;;12.73;1.73;;;5.10;99.90;;;;;;5027411;28;20098;-68
2022/04/10 06:12:14;;;;;;;14.10;2.58;;;5.30;99.90;;;;;;5032524;28;20118;-68
2022/04/10 06:14:39;;;;;;;10.90;1.77;;;5.40;99.90;;;;;;5025530;28;20519;-68
2022/04/10 06:17:06;;;;;;;15.88;2.67;;;5.50;99.90;;;;;;5024564;28;20052;-68
2022/04/10 06:19:32;;;;;;;13.82;2.08;;;5.60;99.90;;;;;;5031406;28;20512;-68
2022/04/10 06:21:57;;;;;;;13.50;2.85;;;5.60;99.90;;;;;;5017555;28;20050;-68
2022/04/10 06:24:23;;;;;;;12.80;2.50;;;5.70;99.90;;;;;;5015326;28;20092;-68
2022/04/10 06:26:51;;;;;;;12.02;3.03;;;5.70;99.90;;;;;;5023421;28;20073;-67
2022/04/10 06:29:17;;;;;;;8.65;2.35;;;5.70;99.90;;;;;;5032593;28;20378;-68
2022/04/10 06:31:43;;;;;;;15.00;2.85;;;5.80;99.90;;;;;;5025634;28;20045;-68
2022/04/10 06:34:08;;;;;;;14.35;3.45;;;5.80;99.90;;;;;;5019096;28;20123;-66
2022/04/10 06:36:34;;;;;;;9.38;2.40;;;5.80;99.90;;;;;;5021375;28;20489;-66
2022/04/10 06:38:59;;;;;;;15.02;2.83;;;5.90;99.90;;;;;;5031980;28;20052;-67
2022/04/10 06:41:25;;;;;;;7.65;1.80;;;6.00;99.90;;;;;;5031864;28;20045;-67
2022/04/10 06:43:51;;;;;;;12.77;3.00;;;6.10;99.90;;;;;;5028398;28;20084;-67
2022/04/10 06:46:17;;;;;;;12.40;2.10;;;6.20;99.90;;;;;;5022050;28;20061;-67
2022/04/10 06:48:43;;;;;;;12.27;2.88;;;6.30;99.90;;;;;;5013319;28;20042;-67
2022/04/10 06:51:08;;;;;;;14.32;3.42;;;6.40;99.90;;;;;;5013448;28;20056;-67
2022/04/10 06:53:34;;;;;;;15.40;2.85;;;6.60;99.90;;;;;;5016766;28;20916;-66
2022/04/10 06:55:59;;;;;;;9.55;2.17;;;6.70;99.90;;;;;;5022658;28;20497;-67
2022/04/10 06:58:25;;;;;;;9.75;3.05;;;6.70;99.90;;;;;;5032247;28;20136;-67
2022/04/10 07:00:50;;;;;;;13.32;3.00;;;6.80;99.90;;;;;;5031718;28;20048;-67
2022/04/10 07:03:16;;;;;;;16.80;2.97;;;6.80;99.90;;;;;;5017781;28;20037;-67
2022/04/10 07:05:42;;;;;;;11.35;1.75;;;6.90;99.90;;;;;;5012581;28;20046;-67
2022/04/10 07:08:08;;;;;;;9.98;2.33;;;7.00;99.90;;;;;;5019777;28;20040;-66
2022/04/10 07:10:34;;;;;;;10.65;2.17;;;7.10;99.90;;;;;;5030365;28;20042;-67
2022/04/10 07:13:00;;;;;;;12.77;2.95;;;7.10;99.90;;;;;;5032483;28;20048;-67
2022/04/10 07:15:25;;;;;;;7.43;1.83;;;7.30;99.90;;;;;;5015309;28;20045;-66
2022/04/10 07:17:52;;;;;;;13.80;2.95;;;7.20;99.90;;;;;;5013621;28;20038;-67
2022/04/10 07:20:17;;;;;;;13.63;2.88;;;7.10;99.90;;;;;;5010813;28;20053;-67
2022/04/10 07:25:27;;;;;;;16.05;2.50;;;7.10;99.90;;;;;;5009894;28;20553;-68
2022/04/10 07:27:53;;;;;;;10.95;2.80;;;7.20;99.90;;;;;;5010732;28;20132;-68
2022/04/10 07:30:18;;;;;;;15.57;2.85;;;7.30;99.90;;;;;;5017832;28;20037;-65
2022/04/10 07:32:54;;;;;;;15.20;2.30;;;7.30;99.90;;;;;;5025027;28;20045;-65
2022/04/10 07:35:21;;;;;;;9.25;2.35;;;7.40;99.90;;;;;;5020133;28;20402;-68
2022/04/10 07:37:47;;;;;;;12.30;2.38;;;7.20;99.90;;;;;;5025565;28;20459;-67
2022/04/10 07:40:13;;;;;;;15.23;2.58;;;7.20;99.90;;;;;;5024086;28;20493;-67
2022/04/10 07:42:39;;;;;;;7.20;1.83;;;7.30;99.90;;;;;;5019991;28;20045;-67
2022/04/10 07:45:06;;;;;;;7.65;2.33;;;7.30;99.90;;;;;;5021553;28;20046;-67
2022/04/10 07:47:31;;;;;;;10.88;2.65;;;7.40;99.90;;;;;;5016114;28;20033;-67
2022/04/10 07:49:57;;;;;;;10.57;3.35;;;7.50;99.90;;;;;;5020704;28;20103;-68
2022/04/10 07:52:23;;;;;;;15.23;2.88;;;7.70;99.90;;;;;;5030047;28;20080;-67
2022/04/10 07:54:52;;;;;;;11.30;2.17;;;7.80;99.90;;;;;;5032129;28;20049;-67
2022/04/10 07:57:18;;;;;;;12.75;3.08;;;7.70;99.90;;;;;;5020824;28;20401;-67
2022/04/10 07:59:44;;;;;;;14.45;2.45;;;7.70;99.90;;;;;;5018913;28;20052;-68
2022/04/10 08:02:10;;;;;;;17.60;3.08;;;7.50;99.90;;;;;;5031333;28;20041;-67
2022/04/10 08:04:35;;;;;;;13.20;2.22;;;7.50;99.90;;;;;;5030500;28;20049;-67
2022/04/10 08:07:01;;;;;;;12.82;2.25;;;7.50;99.90;;;;;;5023519;28;20048;-68
2022/04/10 08:09:26;;;;;;;10.45;1.90;;;7.50;99.90;;;;;;5028723;28;20034;-67
2022/04/10 08:11:53;;;;;;;17.20;3.17;;;7.60;99.90;;;;;;5030023;28;20045;-67
2022/04/10 08:14:19;;;;;;;9.07;1.65;;;7.60;99.90;;;;;;5016427;28;20177;-67
2022/04/10 08:16:45;;;;;;;10.10;2.03;;;7.60;99.90;;;;;;5023498;28;20556;-67
2022/04/10 08:19:10;;;;;;;9.95;2.78;;;7.50;99.90;;;;;;5030491;28;20068;-67
2022/04/10 08:21:36;;;;;;;16.75;2.42;;;7.60;99.90;;;;;;5030489;28;20077;-67
2022/04/10 08:24:01;;;;;;;12.48;2.38;;;7.70;99.90;;;;;;5015666;28;20129;-67
2022/04/10 08:26:27;;;;;;;12.18;2.53;;;8.10;99.90;;;;;;5010982;28;20050;-67
2022/04/10 08:28:52;;;;;;;11.02;2.65;;;8.60;99.90;;;;;;5026986;28;20038;-67
2022/04/10 08:31:18;;;;;;;11.93;2.65;;;8.70;99.90;;;;;;5017984;28;20045;-67
2022/04/10 08:33:44;;;;;;;9.30;2.42;;;8.90;99.90;;;;;;5011096;28;20137;-67
2022/04/10 08:36:09;;;;;;;14.88;2.53;;;9.20;99.90;;;;;;5018946;28;20037;-67
2022/04/10 08:38:35;;;;;;;13.95;3.05;;;9.90;99.90;;;;;;5009335;28;20053;-67
2022/04/10 08:41:01;;;;;;;14.23;2.53;;;10.60;99.90;;;;;;5011403;28;20153;-68
2022/04/10 08:43:28;;;;;;;11.43;2.28;;;10.80;99.90;;;;;;5030447;28;20041;-68
2022/04/10 08:45:58;;;;;;;20.42;3.95;;;11.20;99.90;;;;;;5030657;28;20053;-67
2022/04/10 08:48:26;;;;;;;12.18;1.95;;;10.90;99.90;;;;;;5010423;28;20405;-67
2022/04/10 08:50:55;;;;;;;10.50;2.28;;;11.10;99.90;;;;;;5011486;28;20038;-67
2022/04/10 08:53:22;;;;;;;11.15;3.05;;;10.70;99.90;;;;;;5023634;28;20061;-67
2022/04/10 08:55:47;;;;;;;7.68;2.45;;;10.50;99.90;;;;;;5024286;28;20132;-67
2022/04/10 08:58:13;;;;;;;6.32;1.75;;;10.60;99.90;;;;;;5019193;28;20050;-67
2022/04/10 09:00:42;;;;;;;11.00;1.98;;;11.00;99.90;;;;;;5022017;28;20058;-67
2022/04/10 09:03:08;;;;;;;10.95;1.92;;;11.10;99.90;;;;;;5030740;28;20044;-67
2022/04/10 09:05:33;;;;;;;7.25;1.90;;;11.00;99.90;;;;;;5019666;28;20058;-67
2022/04/10 09:08:06;;;;;;;6.05;1.60;;;10.50;99.90;;;;;;5010499;28;20054;-68
2022/04/10 09:10:51;;;;;;;9.82;2.30;;;10.80;99.90;;;;;;5008584;28;20050;-68
2022/04/10 09:13:34;;;;;;;7.65;1.98;;;11.40;99.90;;;;;;5029476;28;20048;-68
2022/04/10 09:16:07;;;;;;;8.48;1.92;;;11.80;99.90;;;;;;5022566;28;20100;-68
2022/04/10 09:18:51;;;;;;;13.60;2.22;;;11.90;99.90;;;;;;5013040;28;20126;-68
2022/04/10 09:21:19;;;;;;;;;;;11.30;99.90;;;;;;5029742;28;20092;-67
2022/04/10 09:24:11;;;;;;;13.15;1.83;;;10.70;99.90;;;;;;5016018;28;20403;-68
2022/04/10 09:26:48;;;;;;;11.63;1.67;;;11.40;99.90;;;;;;5016290;28;20049;-67
2022/04/10 09:29:16;;;;;;;7.18;1.90;;;12.10;99.90;;;;;;5015206;28;20053;-67
2022/04/10 09:31:42;;;;;;;15.55;3.20;;;12.40;99.90;;;;;;5010766;28;20060;-67
2022/04/10 09:34:35;;;;;;;11.63;2.42;;;12.70;99.90;;;;;;5010330;28;20263;-68
2022/04/10 09:37:03;;;;;;;9.52;1.75;;;12.40;99.90;;;;;;5012087;28;20076;-68
2022/04/10 09:39:36;;;;;;;13.30;3.10;;;11.70;99.90;;;;;;5009615;28;20050;-67
2022/04/10 09:42:10;;;;;;;12.30;2.90;;;10.90;99.90;;;;;;5011436;28;20121;-67
2022/04/10 09:44:37;;;;;;;12.52;2.30;;;10.60;99.90;;;;;;5018069;28;20044;-67
2022/04/10 09:47:10;;;;;;;9.10;1.67;;;10.60;99.90;;;;;;5018763;28;20985;-67
2022/04/10 09:49:37;;;;;;;11.07;2.08;;;10.50;99.90;;;;;;5013230;28;20524;-67
2022/04/10 09:52:11;;;;;;;14.75;1.77;;;10.40;99.90;;;;;;5025264;28;20037;-67
2022/04/10 09:54:46;;;;;;;12.18;2.15;;;10.90;99.90;;;;;;5030485;28;20124;-67
2022/04/10 09:57:16;;;;;;;10.88;2.30;;;11.60;99.90;;;;;;5020069;28;20037;-68
2022/04/10 09:59:47;;;;;;;8.57;1.23;;;11.90;99.90;;;;;;5033976;28;20124;-68
2022/04/10 10:02:14;;;;;;;7.50;1.75;;;11.80;99.90;;;;;;5033609;28;20092;-68
2022/04/10 10:04:42;;;;;;;8.40;1.85;;;11.60;99.90;;;;;;5014904;28;20112;-68
2022/04/10 10:07:12;;;;;;;10.38;1.98;;;12.00;99.90;;;;;;5033111;28;20481;-67
2022/04/10 10:09:39;;;;;;;8.90;3.72;;;11.80;99.90;;;;;;5029135;28;20041;-68
2022/04/10 10:12:05;;;;;;;7.15;1.90;;;11.70;99.90;;;;;;5014208;28;20520;-68
2022/04/10 10:14:32;;;;;;;6.22;1.17;;;12.40;99.90;;;;;;5013931;28;20038;-68
2022/04/10 10:17:00;;;;;;;6.95;1.20;;;12.90;99.90;;;;;;5014076;28;20042;-68
2022/04/10 10:19:28;;;;;;;4.10;1.40;;;12.20;99.90;;;;;;5012901;28;20053;-68
2022/04/10 10:21:54;;;;;;;7.72;2.40;;;11.50;99.90;;;;;;5013545;28;20477;-67
2022/04/10 10:24:23;;;;;;;12.68;2.70;;;12.10;99.90;;;;;;5016139;28;20044;-68
2022/04/10 10:27:21;;;;;;;11.10;1.73;;;12.40;99.90;;;;;;5018125;28;20041;-68
2022/04/10 10:30:07;;;;;;;8.00;1.45;;;12.00;99.90;;;;;;5024392;28;20046;-68
2022/04/10 10:32:41;;;;;;;7.55;1.55;;;11.90;99.90;;;;;;5020571;28;20038;-68
2022/04/10 10:35:11;;;;;;;9.55;1.98;;;11.50;99.90;;;;;;5017459;28;20046;-68
2022/04/10 10:37:51;;;;;;;10.65;1.70;;;11.80;99.90;;;;;;5011681;28;20041;-67
2022/04/10 10:40:19;;;;;;;6.88;1.73;;;12.30;99.90;;;;;;5024308;28;20045;-68
2022/04/10 10:42:47;;;;;;;11.00;1.55;;;12.30;99.90;;;;;;5027255;28;20046;-67
2022/04/10 10:45:32;;;;;;;7.10;1.35;;;12.00;99.90;;;;;;5012738;28;20064;-68
2022/04/10 10:48:24;;;;;;;4.68;1.40;;;11.30;99.90;;;;;;5012567;28;20490;-67
2022/04/10 10:50:50;;;;;;;9.35;2.60;;;11.60;99.90;;;;;;5025190;28;20045;-67
2022/04/10 10:53:23;;;;;;;7.03;1.70;;;11.50;99.90;;;;;;5031289;28;20552;-67
2022/04/10 10:55:51;;;;;;;9.48;1.90;;;11.30;99.90;;;;;;5020104;28;20045;-68
2022/04/10 10:58:30;;;;;;;6.15;1.35;;;10.90;99.90;;;;;;5014288;28;20508;-67
2022/04/10 11:01:02;;;;;;;5.97;1.40;;;11.30;99.90;;;;;;5015245;28;20058;-67
2022/04/10 11:03:29;;;;;;;8.70;2.10;;;11.40;99.90;;;;;;5011351;28;20724;-68
2022/04/10 11:06:14;;;;;;;13.23;2.88;;;11.80;99.90;;;;;;5012743;28;20045;-67
2022/04/10 11:08:40;;;;;;;12.10;2.35;;;12.20;99.90;;;;;;5025477;28;20641;-67
2022/04/10 11:11:07;;;;;;;5.75;1.45;;;11.80;99.90;;;;;;5032498;28;20513;-68
2022/04/10 11:13:42;;;;;;;8.35;1.95;;;11.80;99.90;;;;;;5013971;28;20085;-68
2022/04/10 11:16:13;;;;;;;9.70;1.30;;;11.70;99.90;;;;;;5012003;28;20134;-67
2022/04/10 11:18:43;;;;;;;20.17;2.65;;;11.80;99.90;;;;;;5030695;28;20056;-68
2022/04/10 11:21:14;;;;;;;4.97;1.30;;;12.30;99.90;;;;;;5023845;28;20038;-68
2022/04/10 11:23:47;;;;;;;7.57;1.70;;;12.70;99.90;;;;;;5012242;28;20393;-68
2022/04/10 11:26:16;;;;;;;9.13;1.63;;;12.50;99.90;;;;;;5012277;28;20050;-68
2022/04/10 11:29:00;;;;;;;6.18;1.38;;;12.00;99.90;;;;;;5017996;28;20038;-68
2022/04/10 11:31:33;;;;;;;10.65;1.52;;;12.10;99.90;;;;;;5012944;28;20513;-67
2022/04/10 11:34:10;;;;;;;7.40;1.80;;;12.60;99.90;;;;;;5013280;28;20050;-67
2022/04/10 11:36:52;;;;;;;6.97;1.50;;;12.70;99.90;;;;;;5011726;28;20050;-67
2022/04/10 11:39:22;;;;;;;9.32;1.55;;;12.50;99.90;;;;;;5012057;28;20045;-67
2022/04/10 11:41:49;;;;;;;8.80;1.27;;;12.40;99.90;;;;;;5011293;28;20046;-68
2022/04/10 11:44:15;;;;;;;9.25;1.60;;;12.40;99.90;;;;;;5017225;28;20084;-68
2022/04/10 11:46:44;;;;;;;8.43;1.83;;;11.90;99.90;;;;;;5027770;28;20056;-67
2022/04/10 11:49:10;;;;;;;5.47;1.95;;;11.70;99.90;;;;;;5011176;28;20109;-68
2022/04/10 11:51:59;;;;;;;10.15;2.10;;;12.30;99.90;;;;;;5011707;28;20050;-68
2022/04/10 11:54:33;;;;;;;8.65;1.00;;;12.30;99.90;;;;;;5030410;28;20045;-68
2022/04/10 11:57:04;;;;;;;5.95;1.73;;;12.90;99.90;;;;;;5031680;28;20042;-68
2022/04/10 11:59:37;;;;;;;5.65;1.40;;;12.50;99.90;;;;;;5030638;28;20045;-67
2022/04/10 12:02:12;;;;;;;;;;;12.70;99.90;;;;;;5031540;28;20049;-68
2022/04/10 12:04:40;;;;;;;4.78;1.15;;;13.10;99.90;;;;;;5011878;28;20110;-68
2022/04/10 12:07:17;;;;;;;6.07;1.35;;;13.30;99.90;;;;;;5012337;28;20076;-67
2022/04/10 12:09:46;;;;;;;6.70;1.88;;;13.60;99.90;;;;;;5010701;28;20436;-68
2022/04/10 12:12:12;;;;;;;8.02;1.50;;;13.80;99.90;;;;;;5016254;28;20042;-67
2022/04/10 12:14:38;;;;;;;5.93;1.40;;;13.50;99.90;;;;;;5010788;28;20100;-67
2022/04/10 12:17:10;;;;;;;6.88;1.05;;;13.90;99.90;;;;;;5011287;28;20200;-68
2022/04/10 12:19:36;;;;;;;5.60;1.35;;;13.30;99.90;;;;;;5011448;28;20064;-68
2022/04/10 12:22:06;;;;;;;9.48;1.77;;;13.10;99.90;;;;;;5011773;28;20045;-67
2022/04/10 12:24:31;;;;;;;9.63;1.50;;;13.70;99.90;;;;;;5009379;28;20175;-67
2022/04/10 12:26:58;;;;;;;6.55;1.45;;;13.80;99.90;;;;;;5018159;28;20112;-68
2022/04/10 12:29:27;;;;;;;10.57;1.73;;;14.10;99.90;;;;;;5030411;28;20041;-68
2022/04/10 12:31:54;;;;;;;5.15;1.40;;;14.30;99.90;;;;;;5017174;28;20065;-68
2022/04/10 12:34:21;;;;;;;4.65;1.13;;;14.30;99.90;;;;;;5010845;28;20044;-68
2022/04/10 12:36:51;;;;;;;7.88;1.85;;;14.50;99.90;;;;;;5023663;28;20048;-67
2022/04/10 12:39:29;;;;;;;6.35;1.50;;;14.20;99.90;;;;;;5029888;28;20384;-67
2022/04/10 12:42:09;;;;;;;14.13;2.00;;;13.70;99.50;;;;;;5012353;28;20061;-67
2022/04/10 12:44:37;;;;;;;8.40;1.80;;;13.90;99.90;;;;;;5012501;28;20452;-68
2022/04/10 12:47:03;;;;;;;7.30;1.30;;;14.40;99.90;;;;;;5025322;28;20042;-68
2022/04/10 12:49:30;;;;;;;7.78;1.55;;;14.10;99.90;;;;;;5010195;28;20042;-68
2022/04/10 12:52:03;;;;;;;9.40;1.38;;;13.70;99.80;;;;;;5010121;28;20448;-68
2022/04/10 12:54:37;;;;;;;6.40;1.50;;;13.10;99.80;;;;;;5009866;28;20050;-67